PUUANAHULU HI US current weather conditions

sailwx.info

Wind from 342 at 5 knots gusting 13

Air temperature 21.7° C
Dewpoint 15.0° C

Last reported at 2015-May-25 00:37 UTC.
Time now 2015-May-25 01:30 UTC

Location: N 19°50' W 155°46'.
View on Google Maps.

See reports from other nearby stations

  
Tides and Currents Weather Stations Pressure Air Temp Water Temp Dewpoint Dewpoint Depression Visibility Wind Speed Wind Dir Waves Ship Positions
date/time (UTC)wind fromknots sea level pressurealtimeterstation pressurevisibilityair tempwater tempwave heightnotes
2015-May-25 00:37 342 5 gusting 13 21.7
2015-May-24 23:37 292 7 gusting 16 22.2
2015-May-24 22:37 298 6 gusting 13 23.3
2015-May-24 21:37 331 7 gusting 12 23.3
2015-May-24 20:37 011 7 gusting 14 21.7
2015-May-24 19:37 325 4 gusting 13 22.8
2015-May-24 18:37 351 6 gusting 10 21.7
2015-May-24 17:37 030 2 gusting 6 20.6
2015-May-24 16:37 145 3 gusting 6 16.1
2015-May-24 15:37 147 4 gusting 5 14.4
2015-May-24 14:37 130 3 gusting 5 14.4
2015-May-24 13:37 115 2 gusting 6 15.6
2015-May-24 12:37 126 3 gusting 5 15.0
2015-May-24 11:37 172 2 gusting 4 15.6
2015-May-24 10:37 161 4 gusting 5 16.1
2015-May-24 09:37 140 3 gusting 5 16.1
2015-May-24 08:37 137 0 gusting 3 16.1
2015-May-24 07:37 168 2 gusting 5 16.7
2015-May-24 06:37 17.2
2015-May-24 05:37 123 0 gusting 6 18.3
2015-May-24 04:37 055 5 gusting 12 21.1
2015-May-24 03:37 032 6 gusting 13 21.1
2015-May-24 02:37 308 4 gusting 9 21.7
2015-May-24 01:37 315 4 gusting 12 21.1
2015-May-24 00:37 270 6 gusting 15 22.8
2015-May-23 23:37 358 6 gusting 13 23.3
2015-May-23 22:37 304 8 gusting 14 23.9
2015-May-23 21:37 283 8 gusting 14 23.3
2015-May-23 20:37 289 6 gusting 13 22.8
2015-May-23 19:37 307 5 gusting 9 22.8
2015-May-23 18:37 309 3 gusting 6 21.7
2015-May-23 17:37 346 1 gusting 6 20.0
2015-May-23 16:37 128 4 gusting 6 16.1
2015-May-23 15:37 130 5 gusting 6 15.0
2015-May-23 14:37 118 4 gusting 6 15.0
2015-May-23 13:37 198 1 gusting 6 15.6
2015-May-23 12:37 162 3 gusting 6 16.1
2015-May-23 11:37 135 4 gusting 6 17.2
2015-May-23 10:37 152 5 gusting 7 16.7
2015-May-23 09:37 131 2 gusting 6 16.7
2015-May-23 08:37 112 2 gusting 4 17.8
2015-May-23 07:37 125 0 gusting 3 18.3
2015-May-23 06:37 035 3 gusting 4 18.3
2015-May-23 05:37 212 1 gusting 5 18.3
2015-May-23 04:37 314 4 gusting 9 18.9
2015-May-23 03:37 286 2 gusting 7 20.0
2015-May-23 02:37 269 4 gusting 10 20.6
2015-May-23 01:37 296 6 gusting 12 21.1